This is the latest recevied weather packets stored in our database for station/object WA2FTC. If no packets are shown the sender has not sent any weather packets the latest 10 day(s).
| Time | Temp. | Humidity | Pressure | Rain* | Wind** | Luminosity | Snow |
|---|---|---|---|---|---|---|---|
| 1777605354 | 24.44° C | 88% | 1010.2 hPa | 0 mm | - | - | - |
| 1777604451 | 24.44° C | 87% | 1010.1 hPa | 0 mm | - | - | - |
| 1777603549 | 25° C | 86% | 1010.1 hPa | 0 mm | - | - | - |
| 1777602647 | 25° C | 85% | 1010.2 hPa | 0 mm | - | - | - |
| 1777601749 | 25.56° C | 84% | 1009.8 hPa | 0 mm | - | - | - |
| 1777600865 | 25.56° C | 83% | 1009.6 hPa | 0 mm | - | - | - |
| 1777599944 | 26.11° C | 83% | 1009.6 hPa | 0 mm | - | - | - |
| 1777599043 | 26.11° C | 82% | 1009.1 hPa | 0 mm | - | - | - |
| 1777598153 | 26.11° C | 81% | 1008.9 hPa | 0 mm | - | - | - |
| 1777597242 | 26.67° C | 79% | 1008.8 hPa | 0 mm | - | - | - |
| 1777596339 | 26.67° C | 78% | 1008.6 hPa | 0 mm | - | - | - |
| 1777595439 | 26.67° C | 77% | 1008.5 hPa | 0 mm | - | - | - |
| 1777594538 | 27.22° C | 75% | 1008.3 hPa | 0 mm | - | - | - |
| 1777593640 | 27.78° C | 75% | 1008.2 hPa | 0 mm | - | - | - |
| 1777592742 | 28.33° C | 73% | 1008.2 hPa | 0 mm | - | - | - |
| 1777591834 | 28.89° C | 70% | 1007.8 hPa | 0 mm | - | - | - |
| 1777590934 | 29.44° C | 69% | 1007.6 hPa | 0 mm | - | - | - |
| 1777590033 | 30° C | 66% | 1007.4 hPa | 0 mm | - | - | - |
| 1777589132 | 31.11° C | 64% | 1007.3 hPa | 0 mm | - | - | - |
| 1777588238 | 32.22° C | 61% | 1007 hPa | 0 mm | - | - | - |
| 1777587350 | 32.22° C | 59% | 1007.2 hPa | 0 mm | - | - | - |
| 1777586430 | 32.78° C | 57% | 1007 hPa | 0 mm | - | - | - |
| 1777585539 | 33.33° C | 54% | 1007.1 hPa | 0 mm | - | - | - |
| 1777584677 | 35° C | 49% | 1006.9 hPa | 0 mm | - | - | - |
| 1777583756 | 38.33° C | 45% | 1007.1 hPa | 0 mm | - | - | - |
* Rain latest hour (hover to see other rain measurements)
** Current wind speed in m/s (hover to see current wind gust speed)